AirNav   Pilot Hours Calculator
 
 1180 users online  

1H9 Nest of Eagles Airport
Spooner, Wisconsin, USA

GOING TO SPOONER?


FAA INFORMATION EFFECTIVE 08 OCTOBER 2020

Location

FAA Identifier: 1H9
Lat/Long: 45-50-08.2167N 091-48-10.2159W
45-50.136945N 091-48.170265W
45.8356157,-91.8028378
(estimated)
Elevation: 1115 ft. / 340 m (estimated)
Variation: 02E (1985)
From city: 3 miles E of SPOONER, WI
Time zone: UTC -5 (UTC -6 during Standard Time)
Zip code: 54801

Airport Operations

Airport use: Open to the public
Activation date: 01/1978
Control tower: no
ARTCC: MINNEAPOLIS CENTER
FSS: GREEN BAY FLIGHT SERVICE STATION
NOTAMs facility: GRB (NOTAM-D service available)
Attendance: UNATNDD
Wind indicator: yes
Segmented circle: no
Beacon: white-green (lighted land airport)
Operates sunset to sunrise.

Airport Communications

CTAF: 122.9
WX ASOS at HYR (19 nm NE): 118.4 (715-634-6138)

Nearby radio navigation aids

NDB name  Hdg/Dist  Freq  Var  ID
BIG DOCTOR089/23.620301WBXR -... -..- .-.
RUSK COUNTY301/39.135600WRCX .-. -.-. -..-

Airport Services

Parking: tiedowns
Airframe service: NONE
Powerplant service: NONE
Bottled oxygen: NONE
Bulk oxygen: NONE

Runway Information

Runway 1/19

Dimensions: 3600 x 100 ft. / 1097 x 30 m
Surface: turf, in fair condition
Runway edge markings: RY 01/19 MARKED WITH TWO ORANGE/WHITE HALF BARRELS AT THRESHOLDS.
RUNWAY 1  RUNWAY 19
Latitude: 45-49.844333N45-50.429555N
Longitude: 091-48.236500W091-48.104030W
Elevation: 1099.0 ft.1109.0 ft.
Traffic pattern: leftleft
Runway heading: 007 magnetic, 009 true187 magnetic, 189 true
Displaced threshold: 333 ft.125 ft.
Runway end identifier lights: nono
Touchdown point: yes, no lightsyes, no lights
Obstructions: 60 ft. trees, 512 ft. from runway, 9:1 slope to clear
APCH RATIO 12:1 TO DSPLCD THR.
51 ft. trees, 801 ft. from runway, 50 ft. left of centerline, 16:1 slope to clear

Airport Ownership and Management from official FAA records

Ownership: Privately-owned
Owner: KEITH JOHNSON
5447 MADISON ST
MORTON GROVE, IL 60053
Phone 847-966-6444
Manager: KEITH JOHNSON
5447 MADISON ST
MORTON GROVE, IL 60053
Phone (847) 830-3064

Airport Operational Statistics

Aircraft based on the field: 4
Single engine airplanes: 4
    
Aircraft operations: avg 58/month *
71% local general aviation
29% transient general aviation
* for 12-month period ending 07 August 2019

Additional Remarks

SNOW NOT PLOWED WINTER MONTHS; TURF CUT AND MAINTD SUMMER MONTHS.
FOR CD CTC MINNEAPOLIS ARTCC AT 651-463-5588.

Instrument Procedures

There are no published instrument procedures at 1H9.

Some nearby airports with instrument procedures:

KSSQ - Shell Lake Municipal Airport (8 nm SW)
KHYR - Sawyer County Airport (19 nm NE)
KUBE - Cumberland Municipal Airport (21 nm S)
KRZN - Burnett County Airport (24 nm W)
KRPD - Rice Lake Regional Airport - Carl's Field (25 nm S)
 
Loc | Ops | Rwys | IFR | FBO | Links
Com | Nav | Svcs | Stats | Notes
Area around 1H9 (Nest of Eagles Airport)
 
Road maps at: MapQuest Bing Google
 
Aerial photo
WARNING: Photo may not be current or correct
Aerial photo of 1H9 (Nest of Eagles Airport)
Photo by Mike Hoffman
Photo taken 19-Jul-2009
from over Spooner Lake.

Do you have a better or more recent aerial photo of Nest of Eagles Airport that you would like to share? If so, please send us your photo.

 
Sectional chart

 
Airport distance calculator
Flying to Nest of Eagles Airport? Find the distance to fly.

From to 1H9

Sunrise and sunset
Times for 26-Oct-2020
 Local
(UTC-5)
 Zulu
(UTC)
Morning civil twilight07:1112:11
Sunrise07:4112:41
Sunset18:0123:01
Evening civil twilight18:3223:32

Current date and time
Zulu (UTC)  26-Oct-2020 22:43:51
Local (UTC-5)  26-Oct-2020 17:43:51
 
METAR
KHYR 
18nm NE 
262153Z AUTO VRB04KT 10SM OVC046 M02/M12 A3030 RMK AO2 SLP280 T10171117
KUBE 
21nm S 
262215Z AUTO 21005KT 10SM OVC042 M02/M12 A3031 RMK AO2
KRPD 
22nm S 
262215Z AUTO 00000KT 10SM CLR M02/M10 A3033 RMK AO2 T10251102
KRZN 
24nm W 
262215Z AUTO 28005KT 10SM SCT050 M01/M12 A3032 RMK AO2 T10141122
KOLG 
29nm N 
262215Z AUTO 27004KT 10SM OVC045 M02/M12 A3030 RMK AO1
KY23 
33nm S 
262215Z AUTO 00000KT 10SM SCT044 M01/M10 A3033 RMK AO2 T10151101
KSUW 
35nm N 
262215Z AUTO 27006KT 10SM OVC047 M01/M12 A3032 RMK AO2 T10121116
TAF
KHYR 
18nm NE 
261739Z 2618/2718 VRB04KT P6SM VCSH BKN040 OVC060 FM270200 VRB03KT P6SM SCT040 FM271600 19008KT P6SM SCT090
NOTAMs
Click for the latest NOTAMs
NOTAMs are issued by the DoD/FAA and will open in a separate window not controlled by AirNav.

 

 
 

Would you like to see your business listed on this page?

 If your business provides an interesting product or service to pilots, flight crews, aircraft, or users of the Nest of Eagles Airport, you should consider listing it here.  To start the listing process, click on the button below
 
Add a business
 

Other Pages about Nest of Eagles Airport

Page from the Wisconsin airport directory (PDF)
 
Update a link
 
Copyright © AirNav, LLC. All rights reserved. Privacy Policy  Contact